Time;durP1;ratioP1;P1;durP2;ratioP2;P2;SDS_P1;SDS_P2;PMS_P1;PMS_P2;Temp;Humidity;BMP_temperature;BMP_pressure;BME280_temperature;BME280_humidity;BME280_pressure;Samples;Min_cycle;Max_cycle;Signal;HPM_P1;HPM_P2
2023/01/27 00:01:39;;;;;;;43.83;15.73;;;;;;;-1.32;99.95;101634.84;7398665;19;20021;-69
2023/01/27 00:04:08;;;;;;;39.95;16.30;;;;;;;-1.29;100.00;101635.78;7399386;19;20018;-69
2023/01/27 00:06:36;;;;;;;38.88;17.23;;;;;;;-1.29;99.93;101628.94;7401324;19;20392;-68
2023/01/27 00:09:05;;;;;;;40.35;14.20;;;;;;;-1.29;99.93;101636.66;7401616;19;20412;-69
2023/01/27 00:14:17;;;;;;;43.70;16.38;;;;;;;-1.26;100.00;101633.34;7399640;19;20011;-70
2023/01/27 00:16:45;;;;;;;38.10;15.18;;;;;;;-1.26;100.00;101631.66;7401427;19;20042;-69
2023/01/27 00:19:18;;;;;;;39.20;15.75;;;;;;;-1.25;100.00;101630.84;7401265;19;20074;-70
2023/01/27 00:24:41;;;;;;;39.08;14.70;;;;;;;-1.24;99.96;101631.72;7399067;19;20034;-69
2023/01/27 00:27:11;;;;;;;38.38;15.35;;;;;;;-1.27;99.96;101632.47;7400065;19;20495;-71
2023/01/27 00:29:42;;;;;;;37.83;15.90;;;;;;;-1.32;100.00;101624.53;7400641;19;20010;-68
2023/01/27 00:34:52;;;;;;;31.42;12.40;;;;;;;-1.38;99.84;101614.03;7398479;19;20026;-69
2023/01/27 00:37:21;;;;;;;33.95;12.15;;;;;;;-1.34;100.00;101623.63;7400384;19;20011;-69
2023/01/27 00:39:49;;;;;;;35.35;13.68;;;;;;;-1.33;100.00;101624.50;7400342;19;20015;-69
2023/01/27 00:42:18;;;;;;;41.60;15.13;;;;;;;-1.35;100.00;101629.56;7400198;19;20506;-69
2023/01/27 00:47:30;;;;;;;36.80;13.52;;;;;;;-1.32;100.00;101621.97;7397192;19;20043;-70
2023/01/27 00:49:58;;;;;;;40.22;15.25;;;;;;;-1.31;100.00;101628.88;7397635;19;20023;-70
2023/01/27 00:52:27;;;;;;;36.13;13.85;;;;;;;-1.32;100.00;101619.38;7397749;19;20492;-70
2023/01/27 00:54:55;;;;;;;39.30;14.93;;;;;;;-1.28;100.00;101622.97;7397673;19;20025;-70
2023/01/27 00:57:24;;;;;;;41.35;15.13;;;;;;;-1.27;100.00;101623.88;7399671;19;20014;-70
2023/01/27 00:59:55;;;;;;;41.30;15.20;;;;;;;-1.26;100.00;101623.03;7399605;19;20524;-69
2023/01/27 01:02:24;;;;;;;40.45;14.77;;;;;;;-1.27;100.00;101621.31;7399546;19;20014;-70
2023/01/27 01:04:52;;;;;;;37.85;14.45;;;;;;;-1.29;100.00;101626.38;7397015;19;20505;-70
2023/01/27 01:07:21;;;;;;;37.75;13.85;;;;;;;-1.27;100.00;101635.03;7397260;19;20035;-69
2023/01/27 01:09:49;;;;;;;34.97;14.15;;;;;;;-1.29;100.00;101644.38;7397191;19;20022;-69
2023/01/27 01:12:18;;;;;;;37.08;13.18;;;;;;;-1.30;100.00;101632.34;7397693;19;20070;-69
2023/01/27 01:14:46;;;;;;;31.90;12.38;;;;;;;-1.32;100.00;101629.69;7397262;19;20028;-70
2023/01/27 01:17:18;;;;;;;34.25;12.57;;;;;;;-1.33;100.00;101632.22;7399432;19;20027;-70
2023/01/27 01:19:46;;;;;;;35.88;12.80;;;;;;;-1.33;100.00;101632.22;7399772;19;20031;-69
2023/01/27 01:22:15;;;;;;;37.17;15.13;;;;;;;-1.38;100.00;101633.72;7399332;19;20035;-70
2023/01/27 01:24:43;;;;;;;34.25;11.90;;;;;;;-1.32;100.00;101628.81;7396851;19;20027;-69
2023/01/27 01:27:12;;;;;;;39.00;13.60;;;;;;;-1.36;100.00;101637.25;7398237;19;20022;-70
2023/01/27 01:29:40;;;;;;;37.20;13.25;;;;;;;-1.35;100.00;101636.44;7398961;19;20035;-69
2023/01/27 01:32:10;;;;;;;38.42;13.00;;;;;;;-1.37;100.00;101643.22;7398668;19;20018;-69
2023/01/27 01:34:41;;;;;;;35.42;14.00;;;;;;;-1.39;100.00;101642.25;7396415;19;20014;-69
2023/01/27 01:37:10;;;;;;;30.63;11.60;;;;;;;-1.45;100.00;101640.31;7400013;19;20010;-68
2023/01/27 01:39:38;;;;;;;40.90;13.55;;;;;;;-1.46;100.00;101641.13;7398662;19;20031;-68
2023/01/27 01:42:07;;;;;;;32.67;12.82;;;;;;;-1.49;100.00;101647.03;7398538;19;20036;-70
2023/01/27 01:44:35;;;;;;;43.22;13.40;;;;;;;-1.49;100.00;101651.31;7396568;19;20039;-70
2023/01/27 01:47:04;;;;;;;35.55;12.95;;;;;;;-1.51;100.00;101648.66;7398045;19;20018;-69
2023/01/27 01:49:38;;;;;;;40.42;12.75;;;;;;;-1.50;100.00;101650.41;7398383;19;20014;-69
2023/01/27 01:52:12;;;;;;;46.00;15.15;;;;;;;-1.49;100.00;101644.44;7397953;19;20014;-69
2023/01/27 01:54:43;;;;;;;;;;;;;;;-1.48;100.00;101651.38;7397008;19;20041;-69
2023/01/27 01:57:16;;;;;;;44.42;13.05;;;;;;;-1.45;100.00;101648.03;7397751;19;20346;-69
2023/01/27 01:59:48;;;;;;;50.13;14.75;;;;;;;-1.43;100.00;101648.09;7398399;19;20022;-69
2023/01/27 02:02:21;;;;;;;48.80;13.63;;;;;;;-1.42;100.00;101642.13;7397994;19;20031;-69
2023/01/27 02:04:56;;;;;;;50.78;15.52;;;;;;;-1.39;100.00;101639.69;7395654;19;20411;-68
2023/01/27 02:07:33;;;;;;;47.90;14.35;;;;;;;-1.39;100.00;101635.44;7397802;19;20028;-69
2023/01/27 02:10:02;;;;;;;48.40;14.45;;;;;;;-1.38;100.00;101644.91;7398103;19;20041;-69
2023/01/27 02:12:31;;;;;;;51.47;15.10;;;;;;;-1.36;100.00;101647.53;7397286;19;20478;-70
2023/01/27 02:15:00;;;;;;;49.38;15.40;;;;;;;-1.38;100.00;101644.91;7395497;19;20427;-72
2023/01/27 02:17:30;;;;;;;58.00;15.20;;;;;;;-1.39;100.00;101647.41;7397487;19;20058;-71
2023/01/27 02:20:06;;;;;;;52.10;14.30;;;;;;;-1.33;100.00;101647.66;7397325;19;20028;-70
2023/01/27 02:22:44;;;;;;;52.75;14.35;;;;;;;-1.31;100.00;101651.19;7397803;19;20031;-71
2023/01/27 02:25:21;;;;;;;51.30;15.68;;;;;;;-1.31;100.00;101651.19;7395189;19;20035;-71
2023/01/27 02:27:52;;;;;;;58.17;15.68;;;;;;;-1.29;100.00;101652.09;7396608;19;20023;-71
2023/01/27 02:30:21;;;;;;;50.47;15.75;;;;;;;-1.27;100.00;101653.06;7397092;19;20032;-70
2023/01/27 02:32:50;;;;;;;52.00;15.88;;;;;;;-1.25;100.00;101656.59;7396396;19;20481;-72
2023/01/27 02:35:23;;;;;;;55.72;15.38;;;;;;;-1.26;100.00;101657.41;7396814;19;20031;-71
2023/01/27 02:37:53;;;;;;;71.82;16.15;;;;;;;-1.29;100.00;101649.53;7397278;19;20347;-69
2023/01/27 02:40:23;;;;;;;57.50;14.98;;;;;;;-1.27;100.00;101654.78;7397124;19;20035;-70
2023/01/27 02:42:56;;;;;;;56.50;16.65;;;;;;;-1.28;100.00;101651.31;7396295;19;20022;-69
2023/01/27 02:45:25;;;;;;;60.10;16.47;;;;;;;-1.26;100.00;101654.81;7394950;19;20485;-69
2023/01/27 02:47:54;;;;;;;60.08;16.73;;;;;;;-1.25;100.00;101650.53;7396107;19;21180;-68
2023/01/27 02:50:22;;;;;;;59.40;15.65;;;;;;;-1.23;100.00;101656.66;7396419;19;20134;-69
2023/01/27 02:52:51;;;;;;;63.05;15.95;;;;;;;-1.22;100.00;101656.72;7396024;19;20031;-69
2023/01/27 02:55:19;;;;;;;55.30;16.08;;;;;;;-1.22;100.00;101658.41;7395793;19;20028;-68
2023/01/27 02:57:48;;;;;;;58.10;15.52;;;;;;;-1.22;100.00;101656.72;7396254;19;20410;-67
2023/01/27 03:00:20;;;;;;;67.15;16.88;;;;;;;-1.22;100.00;101651.56;7396033;19;20035;-70
2023/01/27 03:02:48;;;;;;;62.08;16.48;;;;;;;-1.22;100.00;101643.84;7395478;19;20027;-71
2023/01/27 03:05:17;;;;;;;58.10;16.15;;;;;;;-1.21;100.00;101650.75;7393847;19;20082;-70
2023/01/27 03:07:45;;;;;;;58.35;16.90;;;;;;;-1.22;100.00;101648.97;7395858;19;20032;-69
2023/01/27 03:10:14;;;;;;;54.75;15.55;;;;;;;-1.20;100.00;101659.34;7395924;19;20018;-71
2023/01/27 03:12:42;;;;;;;55.75;14.95;;;;;;;-1.21;100.00;101653.31;7395474;19;20014;-70
2023/01/27 03:20:36;;;;;;;52.67;15.15;;;;;;;-1.20;100.00;101665.38;7396996;19;20007;-70
2023/01/27 03:23:05;;;;;;;53.22;14.52;;;;;;;-1.21;100.00;101666.19;7396522;19;20023;-69
2023/01/27 03:25:34;;;;;;;56.88;15.80;;;;;;;-1.19;100.00;101662.00;7394257;19;20043;-69
2023/01/27 03:28:03;;;;;;;48.40;15.70;;;;;;;-1.17;100.00;101664.63;7394475;19;20018;-69
2023/01/27 03:30:31;;;;;;;53.03;14.85;;;;;;;-1.20;100.00;101655.09;7395378;19;20026;-70
2023/01/27 03:33:04;;;;;;;47.08;15.23;;;;;;;-1.13;100.00;101661.34;7393245;19;20021;-67
2023/01/27 03:35:38;;;;;;;51.33;15.82;;;;;;;-1.12;100.00;101673.41;7396695;19;20363;-67
2023/01/27 03:46:18;;;;;;;63.30;17.65;;;;;;;-1.06;100.00;101678.81;7399983;19;20023;-66
2023/01/27 03:48:51;;;;;;;56.80;16.42;;;;;;;-1.05;100.00;101680.59;7401750;19;20434;-67
2023/01/27 03:51:21;;;;;;;60.20;18.60;;;;;;;-1.03;100.00;101680.66;7402081;19;20482;-67
2023/01/27 03:53:50;;;;;;;64.75;17.80;;;;;;;-1.02;100.00;101675.56;7401021;19;20031;-67
2023/01/27 03:56:20;;;;;;;64.90;19.58;;;;;;;-1.00;100.00;101681.66;7402040;19;20041;-68
2023/01/27 03:58:57;;;;;;;59.65;18.60;;;;;;;-0.98;100.00;101676.56;7402317;19;20444;-68
2023/01/27 04:01:26;;;;;;;56.38;18.63;;;;;;;-0.95;100.00;101681.81;7402351;19;20035;-66
2023/01/27 04:09:23;;;;;;;68.93;20.00;;;;;;;-0.93;100.00;101669.91;7401543;19;20011;-67
2023/01/27 04:11:55;;;;;;;65.45;19.80;;;;;;;-0.94;100.00;101668.13;7401954;19;20022;-67
2023/01/27 04:14:25;;;;;;;58.40;19.90;;;;;;;-0.89;100.00;101671.78;7399765;19;20014;-67
2023/01/27 04:16:55;;;;;;;63.90;20.58;;;;;;;-0.89;100.00;101671.78;7401250;19;20031;-66
2023/01/27 04:19:27;;;;;;;69.93;21.50;;;;;;;-0.87;100.00;101674.44;7401922;19;20035;-67
2023/01/27 04:21:56;;;;;;;62.95;20.63;;;;;;;-0.90;100.00;101661.41;7401013;19;20010;-67
2023/01/27 04:24:25;;;;;;;78.32;25.65;;;;;;;-0.85;100.00;101670.19;7399143;19;20024;-67
2023/01/27 04:26:57;;;;;;;64.28;19.00;;;;;;;-0.86;100.00;101671.91;7401148;19;20014;-68
2023/01/27 04:29:27;;;;;;;58.47;20.00;;;;;;;-0.88;100.00;101665.81;7398591;19;20020;-68
2023/01/27 04:31:56;;;;;;;66.05;20.95;;;;;;;-0.88;100.00;101662.34;7401274;19;20098;-68
2023/01/27 04:34:35;;;;;;;64.80;20.63;;;;;;;-0.83;100.00;101673.72;7398407;19;20037;-68
2023/01/27 04:37:05;;;;;;;56.90;19.90;;;;;;;-0.84;100.00;101667.66;7401124;19;20025;-68
2023/01/27 04:39:34;;;;;;;57.20;21.60;;;;;;;-0.82;100.00;101670.34;7400552;19;20022;-68
2023/01/27 04:42:09;;;;;;;60.55;20.80;;;;;;;-0.79;100.00;101677.31;7400487;19;20018;-68
2023/01/27 04:44:38;;;;;;;59.45;20.48;;;;;;;-0.78;100.00;101679.03;7397131;19;20024;-67
2023/01/27 04:47:06;;;;;;;53.22;18.88;;;;;;;-0.78;100.00;101682.50;7396498;19;20015;-67
2023/01/27 04:49:37;;;;;;;52.60;20.15;;;;;;;-0.76;100.00;101687.72;7399612;19;20014;-68
2023/01/27 04:52:06;;;;;;;59.42;19.27;;;;;;;-0.77;100.00;101680.81;7400080;19;20015;-67
2023/01/27 04:54:35;;;;;;;56.63;20.27;;;;;;;-0.74;100.00;101698.97;7397031;19;20027;-67
2023/01/27 04:57:04;;;;;;;59.25;20.55;;;;;;;-0.74;100.00;101686.09;7399030;19;20014;-68
2023/01/27 04:59:33;;;;;;;55.95;21.10;;;;;;;-0.77;100.00;101681.69;7399609;19;20086;-68
2023/01/27 05:02:03;;;;;;;52.65;19.83;;;;;;;-0.70;100.00;101687.97;7399654;19;20039;-68
2023/01/27 05:04:31;;;;;;;53.05;20.70;;;;;;;-0.70;100.00;101696.56;7397148;19;20018;-68
2023/01/27 05:07:03;;;;;;;59.65;22.58;;;;;;;-0.69;100.00;101702.63;7399739;19;20198;-68
2023/01/27 05:09:31;;;;;;;54.53;20.60;;;;;;;-0.67;100.00;101703.53;7399618;19;20392;-68
2023/01/27 05:12:00;;;;;;;53.38;19.70;;;;;;;-0.67;100.00;101703.53;7399476;19;20014;-67
2023/01/27 05:14:28;;;;;;;52.53;18.38;;;;;;;-0.68;100.00;101702.69;7397577;19;20135;-67
2023/01/27 05:16:57;;;;;;;44.95;19.83;;;;;;;-0.67;100.00;101700.97;7399282;19;20018;-67
2023/01/27 05:19:25;;;;;;;51.35;21.15;;;;;;;-0.66;100.00;101700.16;7399223;19;20023;-67
2023/01/27 05:21:54;;;;;;;47.13;20.35;;;;;;;-0.65;100.00;101701.91;7399012;19;20031;-67
2023/01/27 05:24:25;;;;;;;56.22;19.90;;;;;;;-0.64;100.00;101703.69;7397346;19;20018;-67
2023/01/27 05:26:54;;;;;;;43.65;18.75;;;;;;;-0.63;100.00;101710.59;7396351;19;20477;-68
2023/01/27 05:29:22;;;;;;;55.97;21.63;;;;;;;-0.64;100.00;101714.00;7396332;19;20027;-67
2023/01/27 05:31:51;;;;;;;48.88;19.02;;;;;;;-0.65;100.00;101712.22;7400058;19;20022;-68
2023/01/27 05:34:19;;;;;;;55.97;21.98;;;;;;;-0.63;100.00;101720.91;7399202;19;20014;-69
2023/01/27 05:36:48;;;;;;;46.42;19.85;;;;;;;-0.61;100.00;101720.97;7400003;19;20018;-68
2023/01/27 05:39:16;;;;;;;51.70;20.23;;;;;;;-0.62;100.00;101720.09;7398633;19;20032;-68
2023/01/27 05:41:47;;;;;;;52.85;22.45;;;;;;;-0.62;100.00;101719.19;7398495;19;20027;-68
2023/01/27 05:44:16;;;;;;;48.42;20.35;;;;;;;-0.62;100.00;101717.53;7396694;19;20019;-68
2023/01/27 05:46:45;;;;;;;46.30;20.48;;;;;;;-0.61;100.00;101718.38;7396133;19;20027;-67
2023/01/27 05:49:13;;;;;;;50.97;20.45;;;;;;;-0.60;100.00;101726.16;7398016;19;20031;-67
2023/01/27 05:51:42;;;;;;;55.42;21.83;;;;;;;-0.63;100.00;101720.91;7398117;19;20018;-67
2023/01/27 05:54:11;;;;;;;53.95;21.08;;;;;;;-0.60;100.00;101726.16;7397073;19;20379;-67
2023/01/27 05:56:39;;;;;;;58.90;22.65;;;;;;;-0.57;100.00;101738.31;7398102;19;20022;-67
2023/01/27 05:59:12;;;;;;;61.85;22.20;;;;;;;-0.58;100.00;101742.59;7396569;19;20031;-67
2023/01/27 06:01:41;;;;;;;65.07;23.05;;;;;;;-0.58;100.00;101740.00;7397228;19;20362;-69
2023/01/27 06:04:10;;;;;;;53.83;21.20;;;;;;;-0.59;100.00;101745.97;7395704;19;20018;-68
2023/01/27 06:06:39;;;;;;;54.85;21.50;;;;;;;-0.61;100.00;101752.75;7395158;19;20028;-68
2023/01/27 06:09:07;;;;;;;56.10;20.02;;;;;;;-0.61;100.00;101746.75;7397005;19;20014;-67
2023/01/27 06:11:36;;;;;;;47.08;18.45;;;;;;;-0.64;100.00;101744.91;7399362;19;20014;-70
2023/01/27 06:14:05;;;;;;;51.83;19.92;;;;;;;-0.64;100.00;101754.34;7395722;19;20143;-71
2023/01/27 06:16:36;;;;;;;49.30;19.25;;;;;;;-0.66;100.00;101757.75;7397054;19;20014;-70
2023/01/27 06:19:05;;;;;;;54.97;21.42;;;;;;;-0.66;100.00;101759.44;7397185;19;20010;-70
2023/01/27 06:21:33;;;;;;;52.92;19.85;;;;;;;-0.66;100.00;101762.00;7395590;19;20039;-70
2023/01/27 06:24:03;;;;;;;55.22;18.27;;;;;;;-0.66;100.00;101755.19;7394632;19;20018;-69
2023/01/27 06:26:31;;;;;;;50.50;19.02;;;;;;;-0.64;100.00;101756.91;7395745;19;20374;-70
2023/01/27 06:29:00;;;;;;;55.15;22.48;;;;;;;-0.65;100.00;101758.63;7395345;19;20099;-70
2023/01/27 06:31:28;;;;;;;55.78;20.30;;;;;;;-0.64;100.00;101760.38;7396817;19;20029;-70
2023/01/27 06:33:59;;;;;;;48.80;18.88;;;;;;;-0.64;100.00;101765.53;7395423;19;20022;-70
2023/01/27 06:36:28;;;;;;;59.83;25.27;;;;;;;-0.63;100.00;101758.69;7396945;19;20018;-70
2023/01/27 06:38:56;;;;;;;43.50;17.77;;;;;;;-0.64;100.00;101744.91;7395992;19;20371;-70
2023/01/27 06:41:25;;;;;;;38.78;16.63;;;;;;;-0.61;100.00;101759.63;7395905;19;20011;-70
2023/01/27 06:43:53;;;;;;;53.63;19.42;;;;;;;-0.61;100.00;101755.34;7395062;19;20478;-70
2023/01/27 06:46:22;;;;;;;42.30;17.42;;;;;;;-0.60;100.00;101753.66;7395179;19;20383;-70
2023/01/27 06:48:50;;;;;;;49.25;19.40;;;;;;;-0.58;100.00;101768.38;7396103;19;20019;-70
2023/01/27 06:51:21;;;;;;;41.90;17.75;;;;;;;-0.57;100.00;101757.25;7395583;19;20018;-70
2023/01/27 06:53:50;;;;;;;45.78;17.50;;;;;;;-0.56;100.00;101755.53;7395508;19;20014;-71
2023/01/27 06:56:18;;;;;;;42.33;16.77;;;;;;;-0.55;100.00;101760.75;7395898;19;20167;-70
2023/01/27 06:58:47;;;;;;;39.95;16.63;;;;;;;-0.54;100.00;101766.81;7395889;19;20019;-70
2023/01/27 07:01:16;;;;;;;36.88;15.75;;;;;;;-0.51;100.00;101772.06;7395415;19;20017;-71
2023/01/27 07:03:44;;;;;;;41.95;17.15;;;;;;;-0.51;100.00;101766.91;7394147;19;20018;-70
2023/01/27 07:06:13;;;;;;;38.80;16.40;;;;;;;-0.52;100.00;101771.19;7394089;19;20015;-70
2023/01/27 07:08:46;;;;;;;38.63;16.88;;;;;;;-0.52;100.00;101770.28;7394836;19;20033;-70
2023/01/27 07:11:14;;;;;;;46.38;16.98;;;;;;;-0.50;100.00;101766.09;7393234;19;20018;-71
2023/01/27 07:13:43;;;;;;;38.70;16.30;;;;;;;-0.50;100.00;101771.25;7392996;19;20037;-71
2023/01/27 07:16:11;;;;;;;37.83;16.90;;;;;;;-0.50;100.00;101771.25;7393111;19;20396;-69
2023/01/27 07:18:40;;;;;;;39.67;14.85;;;;;;;-0.48;100.00;101776.47;7397215;19;20018;-70
2023/01/27 07:21:09;;;;;;;36.15;15.57;;;;;;;-0.48;100.00;101787.69;7395088;19;20014;-66
2023/01/27 07:23:37;;;;;;;39.72;16.17;;;;;;;-0.50;100.00;101782.44;7392280;19;20011;-67
2023/01/27 07:26:08;;;;;;;35.80;15.18;;;;;;;-0.50;100.00;101787.59;7393755;19;20018;-67
2023/01/27 07:28:37;;;;;;;36.55;14.95;;;;;;;-0.51;100.00;101790.13;7394440;19;20014;-67
2023/01/27 07:31:06;;;;;;;38.03;15.57;;;;;;;-0.53;100.00;101790.06;7395002;19;20027;-66
2023/01/27 07:33:36;;;;;;;36.28;15.95;;;;;;;-0.52;100.00;101786.66;7393883;19;20419;-67
2023/01/27 07:36:04;;;;;;;37.67;15.63;;;;;;;-0.52;100.00;101788.34;7394883;19;20019;-68
2023/01/27 07:38:33;;;;;;;38.28;15.68;;;;;;;-0.52;100.00;101788.34;7394373;19;20402;-66
2023/01/27 07:41:08;;;;;;;37.75;17.05;;;;;;;-0.50;100.00;101791.88;7393887;19;20489;-67
2023/01/27 07:43:37;;;;;;;40.92;16.02;;;;;;;-0.49;100.00;101788.50;7393497;19;20545;-67
2023/01/27 07:46:05;;;;;;;35.47;15.60;;;;;;;-0.48;100.00;101791.94;7393672;19;20034;-67
2023/01/27 07:48:34;;;;;;;40.03;16.20;;;;;;;-0.47;100.00;101801.44;7394368;19;20070;-67
2023/01/27 07:51:02;;;;;;;35.92;15.93;;;;;;;-0.46;100.00;101800.63;7394296;19;20023;-67
2023/01/27 07:53:31;;;;;;;40.45;16.80;;;;;;;-0.46;100.00;101804.06;7393584;19;20032;-67
2023/01/27 07:56:01;;;;;;;45.33;16.00;;;;;;;-0.46;100.00;101804.06;7394184;19;20031;-69
2023/01/27 07:58:32;;;;;;;40.58;14.65;;;;;;;-0.45;100.00;101804.97;7393816;19;20019;-67
2023/01/27 08:01:00;;;;;;;47.88;16.05;;;;;;;-0.46;100.00;101806.66;7394072;19;20074;-68
2023/01/27 08:03:30;;;;;;;44.45;16.30;;;;;;;-0.47;100.00;101804.88;7393111;19;20018;-68
2023/01/27 08:05:58;;;;;;;43.85;16.55;;;;;;;-0.47;100.00;101811.75;7393042;19;20014;-67
2023/01/27 08:08:27;;;;;;;52.28;17.92;;;;;;;-0.47;100.00;101810.03;7393616;19;20021;-66
2023/01/27 08:10:55;;;;;;;40.33;14.90;;;;;;;-0.46;100.00;101810.94;7393554;19;20031;-67
2023/01/27 08:13:24;;;;;;;42.05;14.63;;;;;;;-0.46;100.00;101811.81;7392205;19;20019;-68
2023/01/27 08:15:59;;;;;;;50.22;15.95;;;;;;;-0.46;100.00;101811.81;7393599;19;20027;-66
2023/01/27 08:18:29;;;;;;;47.97;14.88;;;;;;;-0.45;100.00;101820.44;7394016;19;20018;-66
2023/01/27 08:21:01;;;;;;;43.30;14.45;;;;;;;-0.43;100.00;101814.53;7393518;19;20027;-67
2023/01/27 08:23:30;;;;;;;47.05;14.80;;;;;;;-0.43;100.00;101808.47;7399925;19;20018;-67
2023/01/27 08:26:01;;;;;;;44.60;15.05;;;;;;;-0.39;100.00;101816.41;7399514;19;20031;-67
2023/01/27 08:28:31;;;;;;;45.92;14.35;;;;;;;-0.34;100.00;101821.75;7400104;19;20007;-67
2023/01/27 08:31:09;;;;;;;40.75;14.32;;;;;;;-0.33;100.00;101818.31;7400102;19;20041;-68
2023/01/27 08:33:38;;;;;;;43.72;14.75;;;;;;;-0.32;100.00;101819.22;7398804;19;20018;-67
2023/01/27 08:36:10;;;;;;;40.58;13.85;;;;;;;-0.30;100.00;101815.00;7399742;19;20023;-66
2023/01/27 08:38:39;;;;;;;36.85;14.48;;;;;;;-0.28;100.00;101819.38;7397904;19;20018;-66
2023/01/27 08:41:08;;;;;;;44.72;15.75;;;;;;;-0.27;100.00;101817.72;7400227;19;20014;-67
2023/01/27 08:43:37;;;;;;;42.60;15.32;;;;;;;-0.24;100.00;101829.03;7399407;19;20010;-67
2023/01/27 08:46:08;;;;;;;39.70;12.95;;;;;;;-0.23;100.00;101825.66;7400250;19;20011;-67
2023/01/27 08:48:39;;;;;;;31.13;11.68;;;;;;;-0.21;100.00;101823.97;7400200;19;20018;-69
2023/01/27 08:51:08;;;;;;;34.92;12.45;;;;;;;-0.20;100.00;101825.75;7399629;19;20074;-67
2023/01/27 08:53:38;;;;;;;38.13;14.02;;;;;;;-0.18;100.00;101818.97;7398708;19;20018;-67
2023/01/27 08:56:09;;;;;;;33.17;13.07;;;;;;;-0.14;100.00;101817.34;7399941;19;20019;-66
2023/01/27 08:58:38;;;;;;;29.63;11.15;;;;;;;-0.11;100.00;101822.66;7399637;19;20031;-66
2023/01/27 09:01:10;;;;;;;29.95;11.57;;;;;;;-0.08;100.00;101816.75;7399730;19;20018;-66
2023/01/27 09:03:39;;;;;;;30.10;11.48;;;;;;;-0.04;100.00;101821.19;7398846;19;20029;-66
2023/01/27 09:06:10;;;;;;;33.33;11.70;;;;;;;-0.01;100.00;101829.06;7398099;19;20090;-67
2023/01/27 09:08:38;;;;;;;31.05;11.10;;;;;;;0.00;100.00;101825.66;7398884;19;20481;-68
2023/01/27 09:11:11;;;;;;;26.38;11.48;;;;;;;0.06;100.00;101832.75;7398993;19;20014;-67
2023/01/27 09:13:40;;;;;;;28.20;10.93;;;;;;;0.11;100.00;101841.56;7397822;19;20011;-68
2023/01/27 09:16:12;;;;;;;29.33;11.07;;;;;;;0.10;100.00;101829.47;7398675;19;20011;-68
2023/01/27 09:18:41;;;;;;;30.23;11.80;;;;;;;0.20;100.00;101835.88;7399521;19;20011;-67
2023/01/27 09:21:09;;;;;;;29.73;13.40;;;;;;;0.24;100.00;101837.75;7398136;19;20093;-68
2023/01/27 09:23:38;;;;;;;25.02;11.40;;;;;;;0.27;100.00;101840.44;7397082;19;20127;-67
2023/01/27 09:26:07;;;;;;;27.27;12.43;;;;;;;0.30;100.00;101837.97;7398252;19;20014;-67
2023/01/27 09:28:35;;;;;;;25.48;10.52;;;;;;;0.34;100.00;101838.97;7398376;19;20019;-68
2023/01/27 09:31:12;;;;;;;27.27;11.55;;;;;;;0.38;100.00;101846.00;7399363;19;20019;-67
2023/01/27 09:33:41;;;;;;;21.67;9.70;;;;;;;0.40;100.00;101837.50;7395813;19;20018;-67
2023/01/27 09:36:14;;;;;;;22.08;10.13;;;;;;;0.42;100.00;101843.59;7397935;19;20010;-68
2023/01/27 09:38:48;;;;;;;20.08;10.10;;;;;;;0.44;100.00;101841.97;7398447;19;20010;-66
2023/01/27 09:41:55;;;;;;;22.17;10.73;;;;;;;0.45;100.00;101848.00;7398654;19;20490;-67
2023/01/27 09:44:47;;;;;;;22.42;11.55;;;;;;;0.47;100.00;101843.78;7396543;19;20019;-67
2023/01/27 09:47:47;;;;;;;23.63;11.05;;;;;;;0.48;100.00;101849.00;7397458;19;20019;-67
2023/01/27 09:50:39;;;;;;;19.98;9.20;;;;;;;0.50;100.00;101851.63;7397911;19;20018;-67
2023/01/27 09:53:27;;;;;;;21.20;9.32;;;;;;;0.53;100.00;101846.59;7396902;19;20037;-67
2023/01/27 09:56:02;;;;;;;18.92;10.05;;;;;;;0.53;100.00;101849.19;7397417;19;20018;-68
2023/01/27 09:58:44;;;;;;;20.40;9.38;;;;;;;0.57;100.00;101845.88;7398282;19;20015;-67
2023/01/27 10:01:20;;;;;;;17.92;9.65;;;;;;;0.60;100.00;101847.69;7397233;19;20476;-66
2023/01/27 10:04:08;;;;;;;22.60;11.40;;;;;;;0.64;100.00;101844.41;7395871;19;20560;-66
2023/01/27 10:06:52;;;;;;;19.83;10.18;;;;;;;0.69;100.00;101849.75;7397359;19;20027;-66
2023/01/27 10:09:44;;;;;;;19.17;10.80;;;;;;;0.72;100.00;101853.31;7396898;19;20358;-67
2023/01/27 10:12:25;;;;;;;22.10;11.23;;;;;;;0.77;100.00;101850.88;7397514;19;20019;-67
2023/01/27 10:15:01;;;;;;;20.58;10.80;;;;;;;0.81;100.00;101853.66;7393595;19;20038;-67
2023/01/27 10:17:41;;;;;;;21.42;11.57;;;;;;;0.84;100.00;101846.84;7396476;19;20019;-67
2023/01/27 10:20:26;;;;;;;25.02;11.57;;;;;;;0.86;100.00;101850.34;7396623;19;20014;-67
2023/01/27 10:23:08;;;;;;;21.98;13.10;;;;;;;0.87;100.00;101852.09;7396359;19;20502;-68
2023/01/27 10:25:49;;;;;;;21.20;11.23;;;;;;;0.87;100.00;101858.13;7396581;19;20019;-67
2023/01/27 10:28:23;;;;;;;21.90;11.23;;;;;;;0.90;100.00;101862.56;7394992;19;20027;-68
2023/01/27 10:31:01;;;;;;;19.77;12.07;;;;;;;0.91;100.00;101859.13;7397034;19;20018;-67
2023/01/27 10:33:46;;;;;;;22.67;12.25;;;;;;;0.90;100.00;101862.56;7395719;19;20014;-67
2023/01/27 10:36:23;;;;;;;;;;;;;;;0.89;100.00;101865.97;7397254;19;20022;-67
2023/01/27 10:39:04;;;;;;;22.50;12.00;;;;;;;0.89;100.00;101865.97;7395828;19;19931;-67
2023/01/27 10:41:48;;;;;;;24.20;12.85;;;;;;;0.91;100.00;101864.31;7396086;19;20027;-67
2023/01/27 10:44:44;;;;;;;21.30;10.75;;;;;;;0.92;100.00;101866.06;7394139;19;20401;-67
2023/01/27 10:47:24;;;;;;;22.60;12.52;;;;;;;0.97;100.00;101869.69;7395235;19;20027;-67
2023/01/27 10:49:56;;;;;;;20.90;11.95;;;;;;;1.01;100.00;101876.75;7395143;19;20525;-67
2023/01/27 10:52:31;;;;;;;21.23;11.15;;;;;;;1.04;100.00;101870.81;7393329;19;20011;-70
2023/01/27 10:55:04;;;;;;;23.33;12.20;;;;;;;1.08;100.00;101876.13;7393092;19;20019;-71
2023/01/27 10:57:36;;;;;;;18.50;11.38;;;;;;;1.10;100.00;101874.50;7394331;19;20546;-71
2023/01/27 11:00:09;;;;;;;20.73;11.38;;;;;;;1.13;100.00;101872.00;7394784;19;20022;-71
2023/01/27 11:02:44;;;;;;;19.63;10.77;;;;;;;1.19;100.00;101865.28;7395834;19;20094;-69
2023/01/27 11:05:18;;;;;;;18.25;10.32;;;;;;;1.22;100.00;101865.41;7395052;19;20082;-70
2023/01/27 11:07:57;;;;;;;16.25;10.98;;;;;;;1.25;100.00;101871.56;7393726;19;20015;-70
2023/01/27 11:10:35;;;;;;;20.40;13.68;;;;;;;1.29;100.00;101867.38;7395092;19;20099;-70
2023/01/27 11:13:06;;;;;;;21.83;12.43;;;;;;;1.35;100.00;101866.69;7394084;19;20480;-70
2023/01/27 11:15:36;;;;;;;15.52;10.30;;;;;;;1.37;100.00;101860.75;7399094;19;20026;-69
2023/01/27 11:18:12;;;;;;;16.35;10.18;;;;;;;1.44;100.00;101865.31;7397470;19;20014;-69
2023/01/27 11:20:44;;;;;;;15.50;9.30;;;;;;;1.48;100.00;101861.13;7397199;19;20014;-70
2023/01/27 11:23:19;;;;;;;15.73;9.73;;;;;;;1.53;100.00;101859.56;7394392;19;20015;-70
2023/01/27 11:25:54;;;;;;;13.10;9.00;;;;;;;1.58;100.00;101863.19;7395690;19;20022;-70
2023/01/27 11:28:32;;;;;;;14.40;9.48;;;;;;;1.63;100.00;101859.03;7393156;19;20025;-70
2023/01/27 11:31:07;;;;;;;13.23;9.13;;;;;;;1.68;100.00;101861.78;7394278;19;20031;-70
2023/01/27 11:33:50;;;;;;;20.75;12.15;;;;;;;1.74;100.00;101863.69;7393480;19;20486;-70
2023/01/27 11:36:19;;;;;;;16.73;10.52;;;;;;;1.78;100.00;101850.00;7393978;19;20078;-70
2023/01/27 11:38:51;;;;;;;17.00;9.00;;;;;;;1.82;100.00;101851.88;7394281;19;20023;-69
2023/01/27 11:41:19;;;;;;;13.95;8.43;;;;;;;1.87;100.00;101845.16;7394555;19;20014;-71
2023/01/27 11:43:48;;;;;;;11.75;7.60;;;;;;;1.92;100.00;101846.16;7393383;19;20032;-71
2023/01/27 11:46:21;;;;;;;10.35;6.53;;;;;;;1.95;100.00;101838.50;7393839;19;20472;-72
2023/01/27 11:48:54;;;;;;;9.77;6.03;;;;;;;1.98;100.00;101845.47;7392106;19;20011;-72
2023/01/27 11:51:25;;;;;;;10.40;6.10;;;;;;;2.01;100.00;101839.50;7396696;19;20019;-71
2023/01/27 11:54:03;;;;;;;9.88;7.15;;;;;;;2.03;100.00;101846.47;7392913;19;20489;-70